Structure, Texas
Current Conditions -  °F | °C
As of 2:55 PM on Thursday 23 Oct 2014 (Local Time) from KEDC Reporting Station
Clear Clear  
Wind Chill: 27°   Ceiling: Unl
Heat Index: 27°   Visibility: 10mi
Dew Point: 14°   Wind: 6mph
Humidity: 45%   Direction: 20°NNE
Pressure: 30.09"   Gusts: NA
Location:  30.2988°N, 97.3874°W
Report Text: KEDC 231955Z AUTO 02005KT 10SM CLR 27/14 A3009 RMK AO2
Loading
Personal Weather Stations






























Interactive Weather Map
Tropical Storm Tracking
New forecast layout! Learn more

10-Day Weather Forecast

Advertisements
Track Severe Weather on mobile